Aviation Digital Data Service (ADDS)

Output produced by METARs form (0325 UTC 21 September 2017)
found at http://www.aviationweather.gov/adds/metars/
 
KMAF 202320Z 2100/2124 18011KT P6SM SCT100 
     FM211600 18011G20KT P6SM SCT100
       
KMBG 202336Z 2100/2124 22011KT P6SM SKC 
     FM210700 15012KT P6SM SCT150 WS020/18045KT 
     FM211500 16018G25KT P6SM FEW250 
     FM212000 19011KT P6SM FEW250 
     FM212300 31007KT P6SM FEW200
       
KMBS 202320Z 2100/2124 15003KT P6SM SKC 
     FM210700 16004KT 5SM BR FEW040 BKN250 
     FM210900 17005KT 3SM BR BKN035 BKN200 
     FM211300 19009KT P6SM SCT040 BKN150
       
KMCB 202327Z 2100/2124 16003KT P6SM SKC 
     FM210200 00000KT P6SM FEW020 SCT200 
     FM210700 00000KT 5SM BR FEW015 SCT200 
     TEMPO 2111/2113 1 1/2SM BR BKN005 
     FM211500 VRB04KT P6SM SCT020 SCT250
       
KMCE 202338Z 2100/2124 33008KT P6SM SCT150 
     FM210300 32012G18KT P6SM BKN100 
     FM212100 31008KT P6SM BKN150
       
TAF KMCF 210000Z 2100/2206 VRB06KT 9999 BKN030 QNH2992INS 
     BECMG 2108/2109 05006KT 9999 FEW070 SCT080 QNH2993INS 
     BECMG 2114/2115 05006KT 9999 SCT070 BKN080 QNH2996INS 
     BECMG 2123/2124 05006KT 9999 FEW040 QNH2990INS TX34/2121Z TN24/2109Z
       
KMCI 202320Z 2100/2124 19006KT P6SM BKN060 
     FM211500 17013KT P6SM SCT060 SCT200
       
KMCK 202330Z 2100/2124 14009KT P6SM FEW250 
     FM210700 13006KT P6SM SKC WS020/15030KT 
     FM211400 15008KT P6SM FEW250 WS008/17015KT 
     FM211500 16010G20KT P6SM FEW250
       
KMCN 202324Z 2100/2124 31005KT P6SM BKN060 
     FM210100 00000KT P6SM FEW250 
     TEMPO 2110/2112 3SM BR 
     FM211300 03004KT P6SM FEW250 
     FM211900 08006KT P6SM VCSH SCT050
       
KMCO 210300Z 2103/2124 04004KT P6SM FEW080 FEW250 
     FM211500 05007KT P6SM SCT030 SCT250 
     FM211800 06011KT P6SM SCT050 SCT250
       
KMCW 202341Z 2100/2124 33007KT P6SM SKC 
     FM211400 11008KT P6SM BKN028 
     FM211800 14012G18KT P6SM SCT060
       
KMDT 210320Z 2103/2124 33004KT P6SM SKC 
     FM210900 31003KT 5SM BR SKC 
     FM211200 33003KT P6SM SKC
       
KMDW 210318Z 2103/2124 19009KT P6SM SCT250
       
KMEI 202320Z 2100/2124 24003KT P6SM BKN120 
     FM211000 00000KT 4SM BR SCT250 
     FM211200 00000KT 2SM BR SCT250 
     FM211400 04005KT P6SM SCT050 
     FM212000 06005KT P6SM VCTS SCT050CB
       
KMEM 210309Z 2103/2124 18005KT P6SM SCT250 
     FM211800 21006KT P6SM SCT045
       
KMER 202338Z 2100/2124 34008KT P6SM SCT150 
     FM210300 33012G18KT P6SM BKN100 
     FM212100 32008KT P6SM BKN150
       
KMFE 202337Z 2100/2124 16012G18KT P6SM FEW030 
     FM210500 15008KT P6SM SCT015 SCT020 
     TEMPO 2107/2111 BKN015 
     FM211400 15012KT P6SM FEW035
       
KMFR 210003Z 2100/2124 27011G20KT P6SM -SHRA SCT020 BKN040 BKN070 
     FM210200 30005KT P6SM VCSH SCT020 BKN040 BKN070 
     FM210600 VRB03KT P6SM FEW020 SCT030 OVC050 
     FM211500 00000KT P6SM BKN025 
     FM211800 24005KT P6SM BKN050
       
TAF KMGE 202100Z 2021/2203 33006KT 9999 SCT050 SCT100 QNH2995INS 
     BECMG 2114/2115 03006KT 9999 SKC QNH3000INS TX30/2021Z TN20/2112Z
       
KMGM 202320Z 2100/2124 00000KT P6SM SKC 
     FM211500 02005KT P6SM SCT250
       
KMGW 210158Z 2102/2124 00000KT 3SM BR SKC 
     FM210400 00000KT 1SM BR SCT003 
     FM210600 00000KT 1/2SM FG VV003 
     FM211330 VRB03KT P6SM SCT040
       
KMHK 202325Z 2100/2124 06006KT P6SM FEW250 
     FM211400 19012KT P6SM SCT130 
     FM211900 18016G24KT P6SM FEW250
       
KMHR 202321Z 2100/2124 21010G18KT P6SM BKN080 
     FM210500 16008KT P6SM BKN250 
     FM211700 29005KT P6SM BKN250
       
KMHT 202320Z 2100/2124 01008KT P6SM BKN040 OVC250 
     FM211300 02012G20KT P6SM BKN250
       
KMIA 210316Z 2103/2124 09005KT P6SM FEW025 SCT250 
     FM211400 05008KT P6SM SCT035
       
TAF KMIB 210102Z 2101/2207 18009KT 9999 FEW100 QNH2960INS 
     BECMG 2104/2105 17006KT 9999 FEW180 WS020/22045KT QNH2962INS 
     BECMG 2109/2110 17006KT 9999 SCT090 BKN120 QNH2961INS WND 33006KT AFT 2119 TX19/2121Z TN09/2111Z
       
KMIV 202334Z 2100/2124 01004KT P6SM FEW050 
     TEMPO 2109/2111 3SM BR 
     FM211500 01008KT P6SM FEW250 
     FM212200 36004KT P6SM FEW250
       
KMKE 210323Z 2103/2206 19007KT P6SM SCT100 SCT250 
     FM210500 20007KT P6SM VCTS SCT050CB BKN120 
     FM210700 21004KT P6SM BKN080 
     FM211000 00000KT 2SM BR SCT003 BKN120 
     FM211400 10004KT 5SM BR BKN090 
     FM211800 16007KT P6SM BKN200
       
KMKL 202324Z 2100/2124 18003KT P6SM FEW250 
     TEMPO 2109/2113 00000KT 3SM BR 
     FM211300 20004KT P6SM SKC 
     FM211800 18003KT P6SM SCT045
       
KMKT 202337Z 2100/2124 33004KT P6SM SKC 
     FM210400 07004KT P6SM SKC 
     FM211400 12009KT P6SM FEW250 
     FM211800 14013G19KT P6SM FEW030
       
KMLB 202330Z 2100/2124 06010KT P6SM FEW030 FEW250 
     FM210300 06006KT P6SM FEW025 FEW250 
     FM211500 04007KT P6SM SCT025 SCT250 
     FM211800 05011KT P6SM SCT030 SCT250
       
KMLI 210259Z 2103/2124 24007KT P6SM VCTS BKN060CB 
     TEMPO 2103/2105 VRB15G25KT 1SM TSRA BKN025CB OVC050 
     FM210500 VRB06KT P6SM BKN050 
     FM210900 10009KT 4SM BR BKN040 
     FM211300 12011KT 6SM BR BKN040 
     FM211600 18013G20KT P6SM SCT050
       
KMLS 210034Z 2101/2124 20006KT P6SM BKN080 
     FM210600 VRB06KT P6SM VCSH BKN080 
     FM211200 31012G20KT P6SM VCSH BKN080 
     FM212200 VRB06KT P6SM VCSH SCT060 BKN080
       
KMLU 202320Z 2100/2124 17004KT P6SM SCT050 SCT250 
     TEMPO 2108/2112 5SM BR BKN004 
     FM211200 21004KT 5SM BR OVC005 
     TEMPO 2112/2116 P6SM NSW BKN015 
     FM211600 18005KT P6SM BKN025 
     FM211800 16005KT P6SM SCT045
       
KMMH 202320Z 2100/2124 24018G32KT P6SM SCT080 
     FM210900 24018G28KT P6SM -SHRA BKN030 OVC050 
     FM211400 28015G25KT P6SM SCT035 SCT080 
     FM211900 28020G30KT P6SM VCSH BKN050
       
TAF KMMT 202300Z 2023/2205 27006KT 9999 FEW050 QNH2994INS 
     BECMG 2115/2116 02009KT 9999 SCT050 QNH2996INS 
     TEMPO 2121/2124 04010G15KT 6000 -TSRA BKN035CB BKN100 
     BECMG 2200/2201 06006KT 9999 FEW020 SCT040 SCT120 QNH2997INS TX32/2120Z TN20/2111Z
       
KMOB 210119Z 2101/2124 29003KT P6SM -RA SCT045 SCT070 SCT100 
     FM210200 29003KT P6SM SCT050 BKN150 
     TEMPO 2110/2113 5SM BR 
     FM211600 01005KT P6SM VCSH BKN040 BKN250 
     PROB30 2118/2124 5SM TSRA BKN030CB
       
KMOT 210128Z 2101/2124 17010KT P6SM SKC 
     FM210500 17007KT P6SM SCT250 
     FM211000 20007KT P6SM BKN120 
     FM211700 25010KT P6SM BKN150 
     FM212000 30011KT P6SM SCT300
       
KMPV 202340Z 2100/2124 01007KT P6SM SCT080 BKN250 
     FM210400 00000KT 2SM BR OVC035 
     FM210600 00000KT 1/4SM FG VV001 
     FM211300 36004KT 2SM BR BKN002 
     FM211430 36004KT P6SM FEW250
       
KMQY 202334Z 2100/2124 14004KT P6SM FEW060 
     FM210800 00000KT 3SM BCFG BR SCT005 
     FM211300 05004KT P6SM SCT040 AMD NOT SKED
       
KMRY 202339Z 2100/2124 26009KT P6SM FEW016 SCT030 
     TEMPO 2102/2106 BKN015 
     FM210600 23007KT P6SM BKN015 
     FM211700 27010KT P6SM FEW015 
     FM212000 27013G20KT P6SM SKC
       
KMRB 202324Z 2100/2124 34005KT P6SM FEW200 
     FM210800 VRB03KT 5SM BR FEW200 
     FM211300 VRB03KT P6SM FEW200
       
KMSL 202330Z 2100/2124 21003KT P6SM SCT250 
     FM210700 VRB02KT 5SM BR SCT250 
     TEMPO 2108/2112 1SM BR 
     FM211400 01003KT P6SM SKC 
     FM211900 02004KT P6SM SCT050
       
KMSO 202326Z 2100/2124 11007KT P6SM -SHRA SCT030 BKN035 
     FM210400 VRB05KT P6SM VCSH FEW010 BKN025 BKN050 
     FM210900 17005KT 6SM BR BKN030 
     FM211500 VRB04KT P6SM SCT030 
     FM212100 31008KT P6SM BKN050
       
KMSN 210318Z 2103/2124 22006KT P6SM TSRA SCT040 OVC050CB 
     FM210400 VRB03KT P6SM VCSH BKN060 
     FM210800 VRB03KT 5SM BR BKN060 
     FM211100 VRB03KT 2SM BR BKN025 
     FM211400 11004KT 4SM BR BKN025 
     FM211700 15006KT P6SM BKN040
       
KMSP 210257Z 2103/2206 32005KT P6SM SKC 
     FM211300 12007KT P6SM SKC 
     FM211800 13012G20KT P6SM SCT030 
     FM220100 13010KT P6SM -RA BKN005
       
KMSS 202340Z 2100/2124 03004KT P6SM SCT250
       
KMSY 202327Z 2100/2124 00000KT P6SM -RA FEW025 SCT120 BKN250 
     FM210100 VRB03KT P6SM SCT250 
     FM211500 04006KT P6SM SCT030 SCT250
       
TAF KMTC 210100Z 2101/2207 14006KT 9999 FEW250 QNH2999INS 
     BECMG 2105/2106 11006KT 4800 BR FEW025 FEW050 QNH3004INS 
     BECMG 2112/2113 17009KT 9999 NSW SCT035 QNH3004INS TX28/2120Z TN18/2111Z LAST NO AMDS AFT 2103 NEXT 2109
       
KMTH 202340Z 2100/2124 18006KT P6SM SCT025 
     FM210100 VRB03KT P6SM FEW020
       
KMTJ 202325Z 2100/2124 22013KT P6SM SKC 
     FM210300 16008KT P6SM SKC 
     FM210700 16011G19KT P6SM SKC WS020/22035KT 
     FM211800 22019G28KT P6SM FEW140 FEW250
       
KMTN 202324Z 2100/2124 33004KT P6SM SCT200 AMD NOT SKED 2102/2112
       
KMTW 202328Z 2100/2124 18007KT P6SM SCT050 BKN080 
     FM210100 16008KT P6SM SCT035 BKN060 
     TEMPO 2101/2105 3SM -TSRA BKN025CB 
     FM210600 35005KT 4SM BR BKN025 BKN040 
     FM210900 04007KT 3SM BR BKN008 BKN012 
     FM211500 07007KT P6SM SCT015 BKN025 
     FM212000 10007KT P6SM BKN035
       
TAF KMUO 210201Z 2102/2208 32009KT 9999 BKN070 QNH2970INS 
     BECMG 2104/2105 32009KT 9999 BKN070 QNH2971INS 
     BECMG 2115/2116 32010G20KT 9999 SCT070 QNH2976INS 
     TEMPO 2116/2120 32015G25KT 
     BECMG 2202/2203 32009KT 9999 FEW100 QNH2978INS TX18/2121Z TN06/2112Z
       
KMWH 202338Z 2100/2124 23006KT P6SM VCSH SCT040 BKN070 
     FM210200 21005KT P6SM SCT060 SCT100 
     FM210900 24004KT P6SM BKN120 
     FM211200 28005KT P6SM BKN060 OVC120 
     FM212000 35005KT P6SM VCSH SCT050 BKN100
       
TAF KMXF 201900Z 2019/2201 33006KT 9999 FEW035 SCT070 QNH2992INS 
     BECMG 2108/2109 30003KT 8000 BR SCT030 QNH2995INS 
     TEMPO 2110/2113 3200 BR 
     BECMG 2112/2113 33006KT 9999 NSW SKC QNH3002INS TX32/2021Z TN20/2110Z LAST NO AMDS AFT 2103 NEXT 2111
       
KMYL 202322Z 2100/2124 VRB06KT P6SM SCT025 BKN040 OVC050
       
KMYR 202328Z 2100/2124 21008KT P6SM SKC 
     FM210400 VRB03KT P6SM SCT050 
     FM210900 27004KT 4SM BR SCT050 
     FM211200 28004KT P6SM SCT050 
     FM211600 VRB03KT P6SM SCT250 
     PROB30 2118/2124 P6SM -TSRA BKN050CB